sensor_id;sensor_type;location;lat;lon;timestamp;pressure;altitude;pressure_sealevel;temperature
76901;BMP280;65859;43.020;25.096;2023-09-30T00:02:18;99728.47;;;16.58
76901;BMP280;65859;43.020;25.096;2023-09-30T00:04:44;99723.94;;;16.81
76901;BMP280;65859;43.020;25.096;2023-09-30T00:07:11;99721.06;;;16.90
76901;BMP280;65859;43.020;25.096;2023-09-30T00:09:37;99726.41;;;17.09
76901;BMP280;65859;43.020;25.096;2023-09-30T00:12:03;99716.47;;;16.32
76901;BMP280;65859;43.020;25.096;2023-09-30T00:14:30;99716.63;;;15.73
76901;BMP280;65859;43.020;25.096;2023-09-30T00:16:56;99722.06;;;16.43
76901;BMP280;65859;43.020;25.096;2023-09-30T00:19:24;99716.19;;;16.37
76901;BMP280;65859;43.020;25.096;2023-09-30T00:21:50;99723.16;;;16.07
76901;BMP280;65859;43.020;25.096;2023-09-30T00:24:16;99729.88;;;16.16
76901;BMP280;65859;43.020;25.096;2023-09-30T00:26:43;99724.72;;;16.43
76901;BMP280;65859;43.020;25.096;2023-09-30T00:29:09;99728.09;;;16.40
76901;BMP280;65859;43.020;25.096;2023-09-30T00:31:36;99718.69;;;16.30
76901;BMP280;65859;43.020;25.096;2023-09-30T00:34:02;99725.75;;;16.38
76901;BMP280;65859;43.020;25.096;2023-09-30T00:36:29;99722.72;;;16.40
76901;BMP280;65859;43.020;25.096;2023-09-30T00:38:55;99723.75;;;16.16
76901;BMP280;65859;43.020;25.096;2023-09-30T00:41:22;99727.19;;;16.32
76901;BMP280;65859;43.020;25.096;2023-09-30T00:43:48;99726.84;;;16.18
76901;BMP280;65859;43.020;25.096;2023-09-30T00:46:27;99727.66;;;15.87
76901;BMP280;65859;43.020;25.096;2023-09-30T00:48:57;99725.84;;;15.44
76901;BMP280;65859;43.020;25.096;2023-09-30T00:51:25;99722.56;;;15.98
76901;BMP280;65859;43.020;25.096;2023-09-30T00:53:52;99730.16;;;15.64
76901;BMP280;65859;43.020;25.096;2023-09-30T00:56:22;99726.50;;;14.97
76901;BMP280;65859;43.020;25.096;2023-09-30T00:58:49;99727.66;;;15.55
76901;BMP280;65859;43.020;25.096;2023-09-30T01:01:20;99724.03;;;15.64
76901;BMP280;65859;43.020;25.096;2023-09-30T01:03:47;99721.53;;;15.71
76901;BMP280;65859;43.020;25.096;2023-09-30T01:06:13;99731.28;;;15.47
76901;BMP280;65859;43.020;25.096;2023-09-30T01:08:40;99719.81;;;15.78
76901;BMP280;65859;43.020;25.096;2023-09-30T01:11:08;99725.84;;;15.59
76901;BMP280;65859;43.020;25.096;2023-09-30T01:13:36;99719.38;;;15.92
76901;BMP280;65859;43.020;25.096;2023-09-30T01:16:06;99723.56;;;15.46
76901;BMP280;65859;43.020;25.096;2023-09-30T01:18:33;99720.56;;;15.79
76901;BMP280;65859;43.020;25.096;2023-09-30T01:21:03;99735.44;;;14.89
76901;BMP280;65859;43.020;25.096;2023-09-30T01:23:32;99723.59;;;14.62
76901;BMP280;65859;43.020;25.096;2023-09-30T01:26:10;99728.09;;;14.33
76901;BMP280;65859;43.020;25.096;2023-09-30T01:28:38;99725.03;;;14.59
76901;BMP280;65859;43.020;25.096;2023-09-30T01:31:05;99734.22;;;14.34
76901;BMP280;65859;43.020;25.096;2023-09-30T01:33:32;99714.03;;;13.63
76901;BMP280;65859;43.020;25.096;2023-09-30T01:35:59;99728.81;;;13.60
76901;BMP280;65859;43.020;25.096;2023-09-30T01:38:26;99722.13;;;13.54
76901;BMP280;65859;43.020;25.096;2023-09-30T01:40:52;99726.56;;;13.50
76901;BMP280;65859;43.020;25.096;2023-09-30T01:43:20;99727.31;;;13.39
76901;BMP280;65859;43.020;25.096;2023-09-30T01:45:46;99722.09;;;13.42
76901;BMP280;65859;43.020;25.096;2023-09-30T01:48:13;99725.06;;;13.41
76901;BMP280;65859;43.020;25.096;2023-09-30T01:50:40;99727.72;;;13.41
76901;BMP280;65859;43.020;25.096;2023-09-30T01:53:07;99728.66;;;13.45
76901;BMP280;65859;43.020;25.096;2023-09-30T01:55:37;99724.19;;;14.18
76901;BMP280;65859;43.020;25.096;2023-09-30T01:58:04;99717.97;;;14.14
76901;BMP280;65859;43.020;25.096;2023-09-30T02:00:30;99712.47;;;14.60
76901;BMP280;65859;43.020;25.096;2023-09-30T02:02:57;99718.47;;;14.97
76901;BMP280;65859;43.020;25.096;2023-09-30T02:05:24;99718.38;;;15.21
76901;BMP280;65859;43.020;25.096;2023-09-30T02:07:51;99711.47;;;15.36
76901;BMP280;65859;43.020;25.096;2023-09-30T02:10:18;99715.44;;;14.70
76901;BMP280;65859;43.020;25.096;2023-09-30T02:12:45;99710.81;;;13.70
76901;BMP280;65859;43.020;25.096;2023-09-30T02:15:12;99720.19;;;14.00
76901;BMP280;65859;43.020;25.096;2023-09-30T02:17:38;99715.41;;;14.83
76901;BMP280;65859;43.020;25.096;2023-09-30T02:20:05;99712.59;;;15.35
76901;BMP280;65859;43.020;25.096;2023-09-30T02:22:39;99712.72;;;14.83
76901;BMP280;65859;43.020;25.096;2023-09-30T02:25:06;99709.75;;;13.83
76901;BMP280;65859;43.020;25.096;2023-09-30T02:27:34;99715.72;;;13.80
76901;BMP280;65859;43.020;25.096;2023-09-30T02:30:01;99710.81;;;13.70
76901;BMP280;65859;43.020;25.096;2023-09-30T02:32:27;99709.41;;;13.06
76901;BMP280;65859;43.020;25.096;2023-09-30T02:34:54;99712.44;;;12.75
76901;BMP280;65859;43.020;25.096;2023-09-30T02:37:20;99703.09;;;13.44
76901;BMP280;65859;43.020;25.096;2023-09-30T02:39:46;99711.06;;;13.89
76901;BMP280;65859;43.020;25.096;2023-09-30T02:42:13;99708.38;;;13.65
76901;BMP280;65859;43.020;25.096;2023-09-30T02:44:39;99709.38;;;13.27
76901;BMP280;65859;43.020;25.096;2023-09-30T02:47:05;99712.50;;;13.86
76901;BMP280;65859;43.020;25.096;2023-09-30T02:49:33;99709.03;;;13.62
76901;BMP280;65859;43.020;25.096;2023-09-30T02:51:59;99707.38;;;13.24
76901;BMP280;65859;43.020;25.096;2023-09-30T02:54:26;99716.81;;;13.67
76901;BMP280;65859;43.020;25.096;2023-09-30T02:56:53;99717.63;;;13.79
76901;BMP280;65859;43.020;25.096;2023-09-30T02:59:22;99711.28;;;13.84
76901;BMP280;65859;43.020;25.096;2023-09-30T03:01:48;99710.59;;;13.63
76901;BMP280;65859;43.020;25.096;2023-09-30T03:04:15;99701.06;;;13.41
76901;BMP280;65859;43.020;25.096;2023-09-30T03:06:45;99707.34;;;12.70
76901;BMP280;65859;43.020;25.096;2023-09-30T03:09:12;99712.31;;;12.51
76901;BMP280;65859;43.020;25.096;2023-09-30T03:11:41;99719.09;;;12.69
76901;BMP280;65859;43.020;25.096;2023-09-30T03:14:10;99715.53;;;12.65
76901;BMP280;65859;43.020;25.096;2023-09-30T03:16:37;99715.44;;;12.53
76901;BMP280;65859;43.020;25.096;2023-09-30T03:19:04;99712.97;;;13.10
76901;BMP280;65859;43.020;25.096;2023-09-30T03:21:31;99710.81;;;12.83
76901;BMP280;65859;43.020;25.096;2023-09-30T03:23:58;99715.06;;;13.04
76901;BMP280;65859;43.020;25.096;2023-09-30T03:26:24;99716.06;;;13.33
76901;BMP280;65859;43.020;25.096;2023-09-30T03:28:50;99720.38;;;12.63
76901;BMP280;65859;43.020;25.096;2023-09-30T03:31:21;99717.56;;;13.22
76901;BMP280;65859;43.020;25.096;2023-09-30T03:33:49;99714.53;;;14.14
76901;BMP280;65859;43.020;25.096;2023-09-30T03:36:17;99709.50;;;14.49
76901;BMP280;65859;43.020;25.096;2023-09-30T03:38:44;99719.09;;;14.01
76901;BMP280;65859;43.020;25.096;2023-09-30T03:41:11;99721.19;;;13.83
76901;BMP280;65859;43.020;25.096;2023-09-30T03:43:39;99719.16;;;13.93
76901;BMP280;65859;43.020;25.096;2023-09-30T03:46:09;99717.47;;;13.64
76901;BMP280;65859;43.020;25.096;2023-09-30T03:48:35;99715.03;;;13.58
76901;BMP280;65859;43.020;25.096;2023-09-30T03:51:12;99715.63;;;13.76
76901;BMP280;65859;43.020;25.096;2023-09-30T03:53:41;99712.44;;;13.50
76901;BMP280;65859;43.020;25.096;2023-09-30T03:56:07;99706.28;;;13.37
76901;BMP280;65859;43.020;25.096;2023-09-30T03:58:34;99711.19;;;13.35
76901;BMP280;65859;43.020;25.096;2023-09-30T04:01:00;99717.25;;;13.56
76901;BMP280;65859;43.020;25.096;2023-09-30T04:03:28;99722.84;;;13.88
76901;BMP280;65859;43.020;25.096;2023-09-30T04:05:55;99725.41;;;13.97
76901;BMP280;65859;43.020;25.096;2023-09-30T04:08:22;99723.91;;;13.63
76901;BMP280;65859;43.020;25.096;2023-09-30T04:10:48;99728.41;;;13.83
76901;BMP280;65859;43.020;25.096;2023-09-30T04:13:15;99728.25;;;13.34
76901;BMP280;65859;43.020;25.096;2023-09-30T04:15:41;99719.69;;;12.95
76901;BMP280;65859;43.020;25.096;2023-09-30T04:18:07;99727.69;;;13.28
76901;BMP280;65859;43.020;25.096;2023-09-30T04:20:34;99720.47;;;13.62
76901;BMP280;65859;43.020;25.096;2023-09-30T04:23:00;99728.50;;;13.74
76901;BMP280;65859;43.020;25.096;2023-09-30T04:25:28;99733.97;;;13.45
76901;BMP280;65859;43.020;25.096;2023-09-30T04:27:54;99730.03;;;13.30
76901;BMP280;65859;43.020;25.096;2023-09-30T04:30:21;99744.34;;;13.04
76901;BMP280;65859;43.020;25.096;2023-09-30T04:32:48;99736.78;;;12.94
76901;BMP280;65859;43.020;25.096;2023-09-30T04:35:15;99747.56;;;13.97
76901;BMP280;65859;43.020;25.096;2023-09-30T04:37:42;99746.56;;;13.90
76901;BMP280;65859;43.020;25.096;2023-09-30T04:40:10;99749.53;;;14.00
76901;BMP280;65859;43.020;25.096;2023-09-30T04:42:45;99749.63;;;13.92
76901;BMP280;65859;43.020;25.096;2023-09-30T04:45:34;99753.16;;;13.59
76901;BMP280;65859;43.020;25.096;2023-09-30T04:48:04;99754.56;;;14.02
76901;BMP280;65859;43.020;25.096;2023-09-30T04:50:44;99750.75;;;14.64
76901;BMP280;65859;43.020;25.096;2023-09-30T04:53:11;99747.38;;;13.69
76901;BMP280;65859;43.020;25.096;2023-09-30T04:55:39;99753.38;;;13.66
76901;BMP280;65859;43.020;25.096;2023-09-30T04:58:16;99759.91;;;13.02
76901;BMP280;65859;43.020;25.096;2023-09-30T05:01:09;99752.81;;;13.07
76901;BMP280;65859;43.020;25.096;2023-09-30T05:03:46;99759.31;;;13.84
76901;BMP280;65859;43.020;25.096;2023-09-30T05:06:19;99757.09;;;14.10
76901;BMP280;65859;43.020;25.096;2023-09-30T05:08:59;99752.19;;;13.76
76901;BMP280;65859;43.020;25.096;2023-09-30T05:11:36;99761.56;;;14.06
76901;BMP280;65859;43.020;25.096;2023-09-30T05:14:08;99757.56;;;14.49
76901;BMP280;65859;43.020;25.096;2023-09-30T05:16:35;99758.78;;;14.15
76901;BMP280;65859;43.020;25.096;2023-09-30T05:19:01;99752.91;;;13.52
76901;BMP280;65859;43.020;25.096;2023-09-30T05:21:28;99750.78;;;13.91
76901;BMP280;65859;43.020;25.096;2023-09-30T05:23:58;99755.38;;;15.19
76901;BMP280;65859;43.020;25.096;2023-09-30T05:26:31;99752.41;;;15.52
76901;BMP280;65859;43.020;25.096;2023-09-30T05:28:57;99767.63;;;15.64
76901;BMP280;65859;43.020;25.096;2023-09-30T05:31:25;99766.38;;;14.90
76901;BMP280;65859;43.020;25.096;2023-09-30T05:33:52;99766.81;;;15.48
76901;BMP280;65859;43.020;25.096;2023-09-30T05:36:20;99767.09;;;15.90
76901;BMP280;65859;43.020;25.096;2023-09-30T05:38:48;99769.69;;;15.55
76901;BMP280;65859;43.020;25.096;2023-09-30T05:41:17;99777.81;;;14.26
76901;BMP280;65859;43.020;25.096;2023-09-30T05:43:50;99775.56;;;16.08
76901;BMP280;65859;43.020;25.096;2023-09-30T05:46:16;99783.75;;;16.31
76901;BMP280;65859;43.020;25.096;2023-09-30T05:48:43;99777.44;;;17.13
76901;BMP280;65859;43.020;25.096;2023-09-30T05:51:12;99789.19;;;17.96
76901;BMP280;65859;43.020;25.096;2023-09-30T05:53:41;99784.22;;;17.72
76901;BMP280;65859;43.020;25.096;2023-09-30T05:56:08;99781.59;;;17.10
76901;BMP280;65859;43.020;25.096;2023-09-30T05:58:37;99784.19;;;17.26
76901;BMP280;65859;43.020;25.096;2023-09-30T06:01:08;99785.66;;;17.65
76901;BMP280;65859;43.020;25.096;2023-09-30T06:03:39;99789.78;;;17.82
76901;BMP280;65859;43.020;25.096;2023-09-30T06:06:19;99794.41;;;18.08
76901;BMP280;65859;43.020;25.096;2023-09-30T06:08:57;99797.09;;;17.01
76901;BMP280;65859;43.020;25.096;2023-09-30T06:15:12;99791.66;;;17.36
76901;BMP280;65859;43.020;25.096;2023-09-30T06:17:49;99803.19;;;17.59
76901;BMP280;65859;43.020;25.096;2023-09-30T06:20:17;99813.13;;;16.97
76901;BMP280;65859;43.020;25.096;2023-09-30T06:22:45;99809.47;;;17.25
76901;BMP280;65859;43.020;25.096;2023-09-30T06:25:12;99799.50;;;17.25
76901;BMP280;65859;43.020;25.096;2023-09-30T06:27:49;99804.09;;;18.73
76901;BMP280;65859;43.020;25.096;2023-09-30T06:30:29;99805.09;;;19.72
76901;BMP280;65859;43.020;25.096;2023-09-30T06:33:01;99816.63;;;20.21
76901;BMP280;65859;43.020;25.096;2023-09-30T06:35:31;99806.94;;;19.17
76901;BMP280;65859;43.020;25.096;2023-09-30T06:38:07;99801.88;;;18.78
76901;BMP280;65859;43.020;25.096;2023-09-30T06:40:38;99809.09;;;20.51
76901;BMP280;65859;43.020;25.096;2023-09-30T06:43:47;99814.91;;;20.64
76901;BMP280;65859;43.020;25.096;2023-09-30T06:46:21;99810.81;;;20.98
76901;BMP280;65859;43.020;25.096;2023-09-30T06:48:50;99809.50;;;20.60
76901;BMP280;65859;43.020;25.096;2023-09-30T06:51:23;99815.63;;;20.50
76901;BMP280;65859;43.020;25.096;2023-09-30T06:53:59;99806.81;;;20.60
76901;BMP280;65859;43.020;25.096;2023-09-30T06:56:50;99803.50;;;21.17
76901;BMP280;65859;43.020;25.096;2023-09-30T06:59:38;99805.38;;;19.57
76901;BMP280;65859;43.020;25.096;2023-09-30T07:02:08;99809.75;;;18.94
76901;BMP280;65859;43.020;25.096;2023-09-30T07:04:40;99803.22;;;20.35
76901;BMP280;65859;43.020;25.096;2023-09-30T07:07:48;99805.47;;;21.59
76901;BMP280;65859;43.020;25.096;2023-09-30T07:10:27;99809.06;;;20.48
76901;BMP280;65859;43.020;25.096;2023-09-30T07:13:11;99806.13;;;20.78
76901;BMP280;65859;43.020;25.096;2023-09-30T07:16:00;99803.91;;;21.61
76901;BMP280;65859;43.020;25.096;2023-09-30T07:18:47;99805.84;;;21.82
76901;BMP280;65859;43.020;25.096;2023-09-30T07:21:34;99805.06;;;21.75
76901;BMP280;65859;43.020;25.096;2023-09-30T07:24:18;99809.28;;;21.29
76901;BMP280;65859;43.020;25.096;2023-09-30T07:27:19;99804.19;;;22.20
76901;BMP280;65859;43.020;25.096;2023-09-30T07:29:55;99804.91;;;20.71
76901;BMP280;65859;43.020;25.096;2023-09-30T07:32:33;99811.13;;;22.25
76901;BMP280;65859;43.020;25.096;2023-09-30T07:35:04;99804.13;;;23.15
76901;BMP280;65859;43.020;25.096;2023-09-30T07:37:57;99805.81;;;21.96
76901;BMP280;65859;43.020;25.096;2023-09-30T07:41:00;99804.22;;;22.13
76901;BMP280;65859;43.020;25.096;2023-09-30T07:44:03;99804.91;;;24.58
76901;BMP280;65859;43.020;25.096;2023-09-30T07:47:08;99818.88;;;27.05
76901;BMP280;65859;43.020;25.096;2023-09-30T07:49:35;99819.88;;;27.69
76901;BMP280;65859;43.020;25.096;2023-09-30T07:52:16;99815.44;;;28.42
76901;BMP280;65859;43.020;25.096;2023-09-30T07:54:51;99815.66;;;28.48
76901;BMP280;65859;43.020;25.096;2023-09-30T07:57:49;99823.34;;;28.87
76901;BMP280;65859;43.020;25.096;2023-09-30T08:03:35;99818.03;;;26.40
76901;BMP280;65859;43.020;25.096;2023-09-30T08:06:14;99818.94;;;26.33
76901;BMP280;65859;43.020;25.096;2023-09-30T08:11:47;99823.53;;;26.00
76901;BMP280;65859;43.020;25.096;2023-09-30T08:14:53;99817.59;;;27.97
76901;BMP280;65859;43.020;25.096;2023-09-30T08:18:06;99819.25;;;28.32
76901;BMP280;65859;43.020;25.096;2023-09-30T08:21:14;99817.97;;;29.53
76901;BMP280;65859;43.020;25.096;2023-09-30T08:28:19;99816.94;;;28.81
76901;BMP280;65859;43.020;25.096;2023-09-30T08:31:31;99811.94;;;29.80
76901;BMP280;65859;43.020;25.096;2023-09-30T08:33:58;99808.53;;;29.10
76901;BMP280;65859;43.020;25.096;2023-09-30T08:36:24;99809.53;;;30.89
76901;BMP280;65859;43.020;25.096;2023-09-30T08:38:51;99796.06;;;31.46
76901;BMP280;65859;43.020;25.096;2023-09-30T08:41:37;99798.78;;;32.30
76901;BMP280;65859;43.020;25.096;2023-09-30T08:44:04;99799.66;;;33.13
76901;BMP280;65859;43.020;25.096;2023-09-30T08:46:33;99790.84;;;31.57
76901;BMP280;65859;43.020;25.096;2023-09-30T08:49:04;99795.38;;;32.59
76901;BMP280;65859;43.020;25.096;2023-09-30T08:51:32;99792.25;;;33.05
76901;BMP280;65859;43.020;25.096;2023-09-30T08:53:59;99782.72;;;32.52
76901;BMP280;65859;43.020;25.096;2023-09-30T08:56:31;99779.13;;;32.85
76901;BMP280;65859;43.020;25.096;2023-09-30T08:59:02;99777.47;;;33.02
76901;BMP280;65859;43.020;25.096;2023-09-30T09:01:29;99783.91;;;32.99
76901;BMP280;65859;43.020;25.096;2023-09-30T09:03:56;99776.19;;;33.47
76901;BMP280;65859;43.020;25.096;2023-09-30T09:06:26;99773.50;;;33.82
76901;BMP280;65859;43.020;25.096;2023-09-30T09:08:53;99775.31;;;33.41
76901;BMP280;65859;43.020;25.096;2023-09-30T09:11:19;99777.50;;;32.93
76901;BMP280;65859;43.020;25.096;2023-09-30T09:13:48;99772.88;;;33.43
76901;BMP280;65859;43.020;25.096;2023-09-30T09:16:16;99777.97;;;32.77
76901;BMP280;65859;43.020;25.096;2023-09-30T09:18:47;99749.25;;;32.39
76901;BMP280;65859;43.020;25.096;2023-09-30T09:21:20;99738.03;;;30.20
76901;BMP280;65859;43.020;25.096;2023-09-30T09:23:50;99758.44;;;30.37
76901;BMP280;65859;43.020;25.096;2023-09-30T09:26:24;99772.75;;;34.22
76901;BMP280;65859;43.020;25.096;2023-09-30T09:28:55;99763.88;;;34.12
76901;BMP280;65859;43.020;25.096;2023-09-30T09:31:26;99745.88;;;34.37
76901;BMP280;65859;43.020;25.096;2023-09-30T09:33:53;99736.41;;;32.12
76901;BMP280;65859;43.020;25.096;2023-09-30T09:36:20;99749.63;;;30.97
76901;BMP280;65859;43.020;25.096;2023-09-30T09:38:51;99756.91;;;34.37
76901;BMP280;65859;43.020;25.096;2023-09-30T09:41:20;99722.59;;;34.96
76901;BMP280;65859;43.020;25.096;2023-09-30T09:43:50;99735.63;;;35.69
76901;BMP280;65859;43.020;25.096;2023-09-30T09:46:19;99725.38;;;35.33
76901;BMP280;65859;43.020;25.096;2023-09-30T09:48:46;99707.44;;;32.11
76901;BMP280;65859;43.020;25.096;2023-09-30T09:51:14;99720.53;;;31.60
76901;BMP280;65859;43.020;25.096;2023-09-30T09:53:42;99734.78;;;32.68
76901;BMP280;65859;43.020;25.096;2023-09-30T09:56:10;99713.88;;;32.85
76901;BMP280;65859;43.020;25.096;2023-09-30T09:58:39;99718.09;;;32.57
76901;BMP280;65859;43.020;25.096;2023-09-30T10:01:07;99713.50;;;32.15
76901;BMP280;65859;43.020;25.096;2023-09-30T10:03:37;99764.41;;;30.04
76901;BMP280;65859;43.020;25.096;2023-09-30T10:06:04;99704.56;;;29.54
76901;BMP280;65859;43.020;25.096;2023-09-30T10:08:43;99712.66;;;29.88
76901;BMP280;65859;43.020;25.096;2023-09-30T10:11:18;99713.53;;;30.34
76901;BMP280;65859;43.020;25.096;2023-09-30T10:13:55;99714.75;;;30.70
76901;BMP280;65859;43.020;25.096;2023-09-30T10:19:16;99701.16;;;30.21
76901;BMP280;65859;43.020;25.096;2023-09-30T10:24:46;99700.31;;;30.51
76901;BMP280;65859;43.020;25.096;2023-09-30T10:29:54;99699.25;;;29.90
76901;BMP280;65859;43.020;25.096;2023-09-30T10:32:22;99688.41;;;29.78
76901;BMP280;65859;43.020;25.096;2023-09-30T10:34:49;99670.31;;;29.71
76901;BMP280;65859;43.020;25.096;2023-09-30T10:37:24;99683.69;;;29.69
76901;BMP280;65859;43.020;25.096;2023-09-30T10:39:58;99688.84;;;28.92
76901;BMP280;65859;43.020;25.096;2023-09-30T10:42:47;99677.81;;;29.18
76901;BMP280;65859;43.020;25.096;2023-09-30T10:51:14;99660.53;;;28.30
76901;BMP280;65859;43.020;25.096;2023-09-30T10:53:44;99659.19;;;28.82
76901;BMP280;65859;43.020;25.096;2023-09-30T10:56:11;99659.56;;;27.48
76901;BMP280;65859;43.020;25.096;2023-09-30T10:59:04;99657.28;;;27.59
76901;BMP280;65859;43.020;25.096;2023-09-30T11:01:34;99647.44;;;27.49
76901;BMP280;65859;43.020;25.096;2023-09-30T11:04:03;99648.09;;;27.28
76901;BMP280;65859;43.020;25.096;2023-09-30T11:06:31;99648.47;;;28.40
76901;BMP280;65859;43.020;25.096;2023-09-30T11:08:59;99650.63;;;28.80
76901;BMP280;65859;43.020;25.096;2023-09-30T11:11:49;99647.09;;;28.92
76901;BMP280;65859;43.020;25.096;2023-09-30T11:14:26;99642.31;;;28.83
76901;BMP280;65859;43.020;25.096;2023-09-30T11:16:58;99633.34;;;29.05
76901;BMP280;65859;43.020;25.096;2023-09-30T11:19:25;99643.84;;;28.62
76901;BMP280;65859;43.020;25.096;2023-09-30T11:21:54;99642.66;;;27.91
76901;BMP280;65859;43.020;25.096;2023-09-30T11:24:22;99625.97;;;28.49
76901;BMP280;65859;43.020;25.096;2023-09-30T11:26:53;99630.63;;;28.14
76901;BMP280;65859;43.020;25.096;2023-09-30T11:29:20;99626.16;;;28.54
76901;BMP280;65859;43.020;25.096;2023-09-30T11:31:48;99628.28;;;27.90
76901;BMP280;65859;43.020;25.096;2023-09-30T11:34:16;99623.34;;;27.73
76901;BMP280;65859;43.020;25.096;2023-09-30T11:36:52;99621.19;;;27.93
76901;BMP280;65859;43.020;25.096;2023-09-30T11:39:22;99629.88;;;28.13
76901;BMP280;65859;43.020;25.096;2023-09-30T11:41:50;99629.91;;;28.48
76901;BMP280;65859;43.020;25.096;2023-09-30T11:44:16;99622.38;;;28.05
76901;BMP280;65859;43.020;25.096;2023-09-30T11:46:57;99618.66;;;27.48
76901;BMP280;65859;43.020;25.096;2023-09-30T11:51:53;99625.50;;;28.16
76901;BMP280;65859;43.020;25.096;2023-09-30T11:54:19;99620.06;;;27.40
76901;BMP280;65859;43.020;25.096;2023-09-30T11:56:46;99611.34;;;27.83
76901;BMP280;65859;43.020;25.096;2023-09-30T11:59:13;99612.03;;;27.87
76901;BMP280;65859;43.020;25.096;2023-09-30T12:01:40;99600.13;;;27.81
76901;BMP280;65859;43.020;25.096;2023-09-30T12:04:07;99599.25;;;27.97
76901;BMP280;65859;43.020;25.096;2023-09-30T12:06:35;99597.22;;;28.22
76901;BMP280;65859;43.020;25.096;2023-09-30T12:09:04;99588.06;;;28.04
76901;BMP280;65859;43.020;25.096;2023-09-30T12:11:31;99587.66;;;28.40
76901;BMP280;65859;43.020;25.096;2023-09-30T12:13:57;99584.66;;;28.12
76901;BMP280;65859;43.020;25.096;2023-09-30T12:16:23;99591.34;;;27.99
76901;BMP280;65859;43.020;25.096;2023-09-30T12:18:50;99586.22;;;28.01
76901;BMP280;65859;43.020;25.096;2023-09-30T12:21:16;99584.19;;;27.79
76901;BMP280;65859;43.020;25.096;2023-09-30T12:23:46;99585.69;;;28.06
76901;BMP280;65859;43.020;25.096;2023-09-30T12:26:14;99580.34;;;27.77
76901;BMP280;65859;43.020;25.096;2023-09-30T12:28:42;99575.56;;;27.55
76901;BMP280;65859;43.020;25.096;2023-09-30T12:31:08;99572.84;;;27.43
76901;BMP280;65859;43.020;25.096;2023-09-30T12:33:36;99570.09;;;27.30
76901;BMP280;65859;43.020;25.096;2023-09-30T12:36:03;99572.19;;;27.39
76901;BMP280;65859;43.020;25.096;2023-09-30T12:38:29;99564.00;;;27.39
76901;BMP280;65859;43.020;25.096;2023-09-30T12:40:56;99560.16;;;27.11
76901;BMP280;65859;43.020;25.096;2023-09-30T12:43:22;99566.00;;;26.97
76901;BMP280;65859;43.020;25.096;2023-09-30T12:45:49;99557.56;;;27.33
76901;BMP280;65859;43.020;25.096;2023-09-30T12:48:15;99545.53;;;26.92
76901;BMP280;65859;43.020;25.096;2023-09-30T12:50:43;99545.53;;;26.92
76901;BMP280;65859;43.020;25.096;2023-09-30T12:53:10;99548.59;;;27.19
76901;BMP280;65859;43.020;25.096;2023-09-30T12:55:36;99543.47;;;27.21
76901;BMP280;65859;43.020;25.096;2023-09-30T12:58:02;99547.25;;;26.86
76901;BMP280;65859;43.020;25.096;2023-09-30T13:00:31;99544.03;;;27.16
76901;BMP280;65859;43.020;25.096;2023-09-30T13:03:02;99534.38;;;26.86
76901;BMP280;65859;43.020;25.096;2023-09-30T13:05:29;99542.00;;;26.79
76901;BMP280;65859;43.020;25.096;2023-09-30T13:07:56;99535.94;;;26.58
76901;BMP280;65859;43.020;25.096;2023-09-30T13:10:23;99527.66;;;26.91
76901;BMP280;65859;43.020;25.096;2023-09-30T13:12:50;99538.84;;;26.93
76901;BMP280;65859;43.020;25.096;2023-09-30T13:15:17;99523.19;;;26.55
76901;BMP280;65859;43.020;25.096;2023-09-30T13:17:43;99530.31;;;26.66
76901;BMP280;65859;43.020;25.096;2023-09-30T13:20:10;99528.63;;;26.55
76901;BMP280;65859;43.020;25.096;2023-09-30T13:22:38;99518.22;;;26.67
76901;BMP280;65859;43.020;25.096;2023-09-30T13:25:06;99524.78;;;26.40
76901;BMP280;65859;43.020;25.096;2023-09-30T13:27:34;99514.41;;;26.19
76901;BMP280;65859;43.020;25.096;2023-09-30T13:30:00;99515.94;;;26.36
76901;BMP280;65859;43.020;25.096;2023-09-30T13:32:28;99516.78;;;26.62
76901;BMP280;65859;43.020;25.096;2023-09-30T13:34:54;99496.13;;;26.36
76901;BMP280;65859;43.020;25.096;2023-09-30T13:37:21;99506.53;;;26.08
76901;BMP280;65859;43.020;25.096;2023-09-30T13:39:48;99503.31;;;26.42
76901;BMP280;65859;43.020;25.096;2023-09-30T13:42:16;99508.94;;;26.35
76901;BMP280;65859;43.020;25.096;2023-09-30T13:44:43;99503.38;;;26.10
76901;BMP280;65859;43.020;25.096;2023-09-30T13:47:10;99497.34;;;26.02
76901;BMP280;65859;43.020;25.096;2023-09-30T13:49:36;99496.28;;;26.00
76901;BMP280;65859;43.020;25.096;2023-09-30T13:52:02;99493.97;;;26.43
76901;BMP280;65859;43.020;25.096;2023-09-30T13:54:29;99496.31;;;26.41
76901;BMP280;65859;43.020;25.096;2023-09-30T13:56:55;99483.72;;;26.18
76901;BMP280;65859;43.020;25.096;2023-09-30T13:59:21;99490.81;;;26.00
76901;BMP280;65859;43.020;25.096;2023-09-30T14:01:47;99492.88;;;26.24
76901;BMP280;65859;43.020;25.096;2023-09-30T14:04:15;99486.63;;;26.11
76901;BMP280;65859;43.020;25.096;2023-09-30T14:06:42;99485.22;;;26.07
76901;BMP280;65859;43.020;25.096;2023-09-30T14:09:09;99485.13;;;25.94
76901;BMP280;65859;43.020;25.096;2023-09-30T14:11:41;99479.78;;;25.90
76901;BMP280;65859;43.020;25.096;2023-09-30T14:14:08;99486.63;;;25.95
76901;BMP280;65859;43.020;25.096;2023-09-30T14:16:36;99482.09;;;26.21
76901;BMP280;65859;43.020;25.096;2023-09-30T14:19:03;99480.25;;;26.18
76901;BMP280;65859;43.020;25.096;2023-09-30T14:21:29;99486.28;;;26.09
76901;BMP280;65859;43.020;25.096;2023-09-30T14:23:58;99493.97;;;25.82
76901;BMP280;65859;43.020;25.096;2023-09-30T14:26:24;99479.84;;;25.71
76901;BMP280;65859;43.020;25.096;2023-09-30T14:28:51;99479.94;;;25.83
76901;BMP280;65859;43.020;25.096;2023-09-30T14:31:17;99481.06;;;25.70
76901;BMP280;65859;43.020;25.096;2023-09-30T14:33:43;99484.19;;;25.68
76901;BMP280;65859;43.020;25.096;2023-09-30T14:36:11;99478.59;;;25.75
76901;BMP280;65859;43.020;25.096;2023-09-30T14:38:37;99482.50;;;25.74
76901;BMP280;65859;43.020;25.096;2023-09-30T14:41:07;99476.53;;;25.79
76901;BMP280;65859;43.020;25.096;2023-09-30T14:43:34;99481.91;;;25.83
76901;BMP280;65859;43.020;25.096;2023-09-30T14:46:03;99474.84;;;25.69
76901;BMP280;65859;43.020;25.096;2023-09-30T14:48:30;99480.88;;;25.77